createdAt,value
2018-06-02T00:55:21.208Z,66.50
2018-06-02T00:57:54.683Z,66.63
2018-06-02T01:00:29.147Z,50.27
2018-06-02T01:03:04.408Z,53.93
2018-06-02T01:05:36.841Z,81.40
2018-06-02T01:08:11.340Z,78.87
2018-06-02T01:10:45.064Z,97.33
2018-06-02T01:13:22.178Z,121.03
2018-06-02T01:15:55.302Z,176.07
2018-06-02T01:18:30.918Z,241.23
2018-06-02T01:21:03.583Z,270.80
2018-06-02T01:23:37.279Z,313.33
2018-06-02T01:26:10.577Z,176.07
2018-06-02T01:28:43.620Z,288.70
2018-06-02T01:31:15.728Z,256.37
2018-06-02T01:33:47.818Z,238.80
2018-06-02T01:36:20.103Z,312.20
2018-06-02T01:38:52.383Z,324.23
2018-06-02T01:41:24.778Z,326.47
2018-06-02T01:43:58.683Z,251.87
2018-06-02T01:46:34.404Z,325.40
2018-06-02T01:49:08.603Z,431.07
2018-06-02T01:51:41.402Z,466.73
2018-06-02T01:54:14.518Z,581.67
2018-06-02T01:56:47.301Z,656.97
2018-06-02T01:59:21.119Z,629.90
2018-06-02T02:01:54.358Z,649.43
2018-06-02T02:04:29.264Z,695.53
2018-06-02T02:07:02.081Z,685.10
2018-06-02T02:09:36.545Z,738.70
2018-06-02T02:12:12.316Z,680.87
2018-06-02T02:14:45.180Z,676.87
2018-06-02T02:17:19.801Z,736.30
2018-06-02T02:19:55.023Z,761.73
2018-06-02T02:22:29.600Z,714.13
2018-06-02T02:25:02.160Z,758.63
2018-06-02T02:27:34.964Z,754.13
2018-06-02T02:30:08.140Z,732.27
2018-06-02T02:32:40.996Z,708.23
2018-06-02T02:35:15.363Z,777.43
2018-06-02T02:37:47.641Z,700.63
2018-06-02T02:40:20.159Z,710.83
2018-06-02T02:42:54.106Z,734.70
2018-06-02T02:45:27.182Z,670.33
2018-06-02T02:48:00.360Z,733.40
2018-06-02T02:50:34.799Z,750.57
2018-06-02T02:53:10.904Z,768.33
2018-06-02T02:55:45.594Z,712.20
2018-06-02T02:58:19.141Z,735.20
2018-06-02T03:00:53.512Z,713.53
2018-06-02T03:03:28.820Z,762.77
2018-06-02T03:06:02.583Z,756.30
2018-06-02T03:08:35.058Z,753.27
2018-06-02T03:11:08.862Z,798.40
2018-06-02T03:13:42.363Z,791.40
2018-06-02T03:16:15.903Z,814.47
2018-06-02T03:18:50.425Z,797.23
2018-06-02T03:21:25.864Z,822.00
2018-06-02T03:23:58.382Z,827.53
2018-06-02T03:26:32.517Z,838.50
2018-06-02T03:29:06.136Z,808.00
2018-06-02T03:31:41.297Z,791.20
2018-06-02T03:34:17.899Z,785.43
2018-06-02T03:36:50.580Z,795.00
2018-06-02T03:39:25.642Z,805.47
2018-06-02T03:41:58.882Z,807.23
2018-06-02T03:44:32.500Z,806.37
2018-06-02T03:47:05.475Z,798.33
2018-06-02T03:49:38.102Z,795.90
2018-06-02T03:52:12.240Z,803.80
2018-06-02T03:54:44.757Z,807.10
2018-06-02T03:57:17.580Z,785.13
2018-06-02T03:59:50.639Z,763.77
2018-06-02T04:02:23.839Z,761.87
2018-06-02T04:04:58.335Z,759.30
2018-06-02T04:07:31.877Z,741.47
2018-06-02T04:10:05.600Z,725.73
2018-06-02T04:12:38.696Z,715.40
2018-06-02T04:15:11.278Z,610.33
2018-06-02T04:17:46.340Z,671.43
2018-06-02T04:20:18.744Z,681.80
2018-06-02T04:22:52.461Z,675.33
2018-06-02T04:25:24.661Z,507.00
2018-06-02T04:27:59.523Z,506.23
2018-06-02T04:30:32.498Z,622.13
2018-06-02T04:33:07.246Z,478.20
2018-06-02T04:35:39.702Z,504.00
2018-06-02T04:38:11.562Z,512.93
2018-06-02T04:40:45.620Z,600.57
2018-06-02T04:43:18.559Z,662.50
2018-06-02T04:45:51.900Z,600.40
2018-06-02T04:48:25.878Z,620.33
2018-06-02T04:50:57.959Z,679.87
2018-06-02T04:53:31.083Z,614.43
2018-06-02T04:56:03.305Z,490.90
2018-06-02T04:58:37.819Z,349.60
2018-06-02T05:01:10.161Z,233.67
2018-06-02T05:03:43.999Z,220.17
2018-06-02T05:06:16.562Z,149.47
2018-06-02T05:08:49.159Z,121.43
2018-06-02T05:11:21.381Z,118.27
2018-06-02T05:13:53.958Z,85.80
2018-06-02T05:16:27.062Z,130.83
2018-06-02T05:19:00.178Z,108.90
2018-06-02T05:21:34.825Z,133.93
2018-06-02T05:24:08.519Z,253.27
2018-06-02T05:26:43.083Z,142.77
2018-06-02T05:29:17.926Z,205.30
2018-06-02T05:31:57.981Z,172.93
2018-06-02T05:34:43.303Z,168.10
2018-06-02T05:37:17.542Z,217.97
2018-06-02T05:39:51.584Z,159.60
2018-06-02T05:42:25.125Z,267.90
2018-06-02T05:44:59.804Z,798.63
2018-06-02T05:47:31.857Z,392.07
2018-06-02T05:50:07.021Z,266.47
2018-06-02T05:52:39.579Z,230.20
2018-06-02T05:55:13.438Z,616.63
2018-06-02T05:57:45.980Z,442.30
2018-06-02T06:00:19.662Z,788.63
2018-06-02T06:59:16.421Z,999.90
2018-06-02T07:01:49.031Z,999.90
2018-06-02T07:04:21.603Z,999.90
2018-06-02T07:06:56.444Z,869.17
2018-06-02T07:09:30.420Z,999.90
2018-06-02T07:12:02.894Z,999.90
2018-06-02T07:14:35.906Z,752.13
2018-06-02T07:17:09.429Z,448.87
2018-06-02T07:19:45.979Z,678.67
2018-06-02T07:22:23.457Z,919.27
2018-06-02T07:24:58.978Z,999.90
2018-06-02T07:27:32.659Z,999.90
2018-06-02T07:30:06.363Z,999.90
2018-06-02T07:32:42.580Z,760.93
2018-06-02T07:35:15.859Z,335.30
2018-06-02T07:37:49.724Z,436.50
2018-06-02T07:40:23.802Z,682.37
2018-06-02T07:42:58.397Z,654.83
2018-06-02T07:45:32.540Z,309.47
2018-06-02T07:48:07.140Z,200.62
2018-06-02T07:50:42.441Z,73.68
2018-06-02T07:53:17.655Z,45.28
2018-06-02T08:02:23.577Z,105.28
2018-06-02T08:04:59.242Z,39.28
2018-06-02T08:07:52.032Z,57.00
2018-06-02T08:10:25.491Z,207.85
2018-06-02T08:13:00.319Z,448.37
2018-06-02T08:15:35.447Z,362.70
2018-06-02T08:18:08.321Z,346.67
2018-06-02T08:20:41.367Z,155.45
2018-06-02T08:23:14.660Z,152.98
2018-06-02T08:25:47.123Z,177.05
2018-06-02T08:28:21.899Z,71.70
2018-06-02T08:30:55.186Z,179.20
2018-06-02T08:33:30.632Z,136.52
2018-06-02T08:36:05.925Z,85.78
2018-06-02T08:38:42.919Z,93.15
2018-06-02T08:41:15.496Z,166.75
2018-06-02T08:43:48.803Z,450.65
2018-06-02T08:46:22.663Z,551.40
2018-06-02T08:48:57.461Z,545.17
2018-06-02T08:51:33.021Z,480.80
2018-06-02T08:54:06.123Z,564.15
2018-06-02T08:56:38.301Z,422.23
2018-06-02T08:59:11.201Z,570.17
2018-06-02T09:01:46.002Z,554.60
2018-06-02T09:04:23.359Z,555.93
2018-06-02T09:06:57.481Z,584.58
2018-06-02T09:09:31.500Z,568.23
2018-06-02T09:12:05.243Z,495.80
2018-06-02T09:14:40.011Z,127.87
2018-06-02T09:17:14.462Z,632.57
2018-06-02T09:19:53.044Z,621.93
2018-06-02T09:22:27.222Z,107.03
2018-06-02T09:25:00.123Z,125.50
2018-06-02T09:27:34.158Z,301.17
2018-06-02T09:30:08.164Z,429.20
2018-06-02T09:32:43.978Z,106.57
2018-06-02T09:35:16.936Z,574.97
2018-06-02T09:37:52.759Z,592.07
2018-06-02T09:40:27.952Z,94.00
2018-06-02T09:43:01.940Z,477.10
2018-06-02T09:45:37.799Z,505.53
2018-06-02T09:48:10.602Z,647.40
2018-06-02T09:50:43.845Z,102.33
2018-06-02T09:53:17.560Z,107.93
2018-06-02T09:55:52.756Z,271.77
2018-06-02T09:58:27.657Z,496.57
2018-06-02T10:01:02.202Z,590.73
2018-06-02T10:03:37.760Z,692.17
2018-06-02T10:06:09.939Z,322.00
2018-06-02T10:08:41.569Z,689.63
2018-06-02T10:49:50.421Z,142.37
2018-06-02T10:52:23.500Z,552.30
2018-06-02T10:54:59.236Z,153.85
2018-06-02T10:57:35.742Z,311.15
2018-06-02T11:00:07.968Z,107.43
2018-06-02T11:02:40.904Z,173.02
2018-06-02T12:10:40.156Z,195.32
2018-06-02T12:13:13.242Z,114.32
2018-06-02T12:15:47.285Z,98.00
2018-06-02T12:18:21.081Z,113.35
2018-06-02T12:20:56.419Z,138.10
2018-06-02T12:23:30.378Z,134.00
2018-06-02T12:26:06.723Z,146.27
2018-06-02T12:28:40.661Z,156.35
2018-06-02T12:31:13.940Z,213.90
2018-06-02T12:33:48.584Z,247.25
2018-06-02T12:36:21.925Z,288.60
2018-06-02T12:38:56.989Z,323.83
2018-06-02T12:41:31.020Z,330.60
2018-06-02T12:44:06.520Z,284.92
2018-06-02T12:46:45.879Z,282.75
2018-06-02T12:49:20.479Z,279.17
2018-06-02T12:51:53.440Z,275.25
2018-06-02T12:54:28.785Z,208.18
2018-06-02T12:57:02.945Z,259.62
2018-06-02T12:59:36.422Z,235.27
2018-06-02T13:02:11.319Z,223.73
2018-06-02T13:04:48.287Z,216.57
2018-06-02T13:07:21.121Z,279.90
2018-06-02T13:09:56.202Z,256.50
2018-06-02T14:24:05.167Z,363.87
2018-06-02T14:26:40.030Z,278.12
2018-06-02T14:29:13.339Z,369.83
2018-06-02T14:31:46.852Z,322.92
2018-06-02T14:34:19.359Z,438.48
2018-06-02T14:36:52.076Z,418.00
2018-06-02T14:39:24.056Z,365.05
2018-06-02T14:41:58.492Z,331.92
2018-06-02T14:44:34.454Z,344.87
2018-06-02T14:47:09.158Z,340.30
2018-06-02T14:49:41.615Z,345.30
2018-06-02T14:52:14.754Z,317.80
2018-06-02T14:54:50.095Z,286.20
2018-06-02T14:57:22.417Z,354.10
2018-06-02T14:59:55.676Z,361.65
2018-06-02T15:35:12.171Z,366.12
2018-06-02T15:37:47.714Z,334.95
2018-06-02T15:40:20.255Z,443.25
2018-06-02T15:42:55.072Z,387.80
2018-06-02T15:45:28.152Z,344.85
2018-06-02T15:48:00.219Z,331.77
2018-06-02T15:50:34.075Z,267.48
2018-06-02T15:53:06.093Z,205.50
2018-06-02T15:55:40.378Z,128.62
2018-06-02T15:58:16.332Z,176.18
2018-06-02T16:00:51.352Z,307.05
2018-06-02T16:03:24.823Z,194.07
2018-06-02T16:05:59.981Z,224.35
2018-06-02T16:08:35.916Z,276.58
2018-06-02T16:11:09.700Z,158.40
2018-06-02T16:13:45.479Z,204.32
2018-06-02T16:16:21.239Z,262.77
2018-06-02T16:18:54.596Z,164.95
2018-06-02T16:21:27.891Z,136.45
2018-06-02T16:24:03.597Z,218.43
2018-06-02T16:26:38.257Z,288.58
2018-06-02T16:29:12.818Z,142.95
2018-06-02T16:31:47.874Z,190.32
2018-06-02T16:34:20.836Z,271.40
2018-06-02T16:36:59.442Z,268.23
2018-06-02T16:39:35.652Z,359.45
2018-06-02T16:42:12.917Z,339.95
2018-06-02T16:44:49.598Z,364.15
2018-06-02T16:47:26.470Z,257.58
2018-06-02T16:50:00.276Z,269.50
2018-06-02T16:52:35.350Z,173.70
2018-06-02T16:55:09.472Z,226.57
2018-06-02T16:57:46.193Z,201.90
2018-06-02T17:00:19.942Z,305.15
2018-06-02T17:02:53.040Z,430.48
2018-06-02T17:05:27.397Z,361.70
2018-06-02T17:08:03.100Z,409.17
2018-06-02T17:10:36.359Z,460.70
2018-06-02T17:13:09.816Z,576.00
2018-06-02T17:15:41.759Z,570.13
2018-06-02T17:18:17.510Z,554.63
2018-06-02T17:20:49.952Z,556.00
2018-06-02T17:23:25.116Z,574.57
2018-06-02T17:26:00.137Z,611.60
2018-06-02T17:28:33.233Z,523.53
2018-06-02T17:31:06.284Z,548.33
2018-06-02T17:33:38.877Z,526.53
2018-06-02T17:36:12.996Z,660.43
2018-06-02T17:38:45.613Z,667.17
2018-06-02T18:10:56.875Z,508.97
2018-06-02T18:13:30.133Z,565.50
2018-06-02T18:16:05.660Z,465.63
2018-06-02T18:18:38.935Z,200.30
2018-06-02T18:21:12.091Z,576.83
2018-06-02T18:23:48.474Z,177.87
2018-06-02T18:26:24.581Z,535.17
2018-06-02T18:28:59.817Z,250.23
2018-06-02T18:31:32.499Z,262.57
2018-06-02T18:34:04.273Z,172.27
2018-06-02T18:36:36.838Z,103.80
2018-06-02T18:39:09.277Z,107.97
2018-06-02T18:41:44.035Z,77.07
2018-06-02T18:44:17.437Z,71.97
2018-06-02T18:46:52.737Z,74.73
2018-06-02T18:49:25.648Z,91.60
2018-06-02T18:51:58.173Z,86.73
2018-06-02T18:54:32.893Z,95.23
2018-06-02T18:57:08.078Z,89.10
2018-06-02T18:59:40.573Z,97.20
2018-06-02T19:02:14.973Z,94.27
2018-06-02T19:04:47.593Z,100.03
2018-06-02T19:07:21.038Z,162.27
2018-06-02T19:09:57.337Z,201.60
2018-06-02T19:12:30.250Z,319.37
2018-06-02T19:15:03.235Z,560.37
2018-06-02T19:17:36.935Z,721.37
2018-06-02T19:20:11.257Z,855.63
2018-06-02T19:22:47.497Z,999.90
2018-06-02T19:25:22.926Z,976.57
2018-06-02T19:27:54.758Z,999.90
2018-06-02T19:30:29.115Z,999.90
2018-06-02T19:33:02.035Z,999.90
2018-06-02T19:35:34.314Z,999.90
2018-06-02T19:38:07.418Z,999.90
2018-06-02T19:40:40.194Z,999.90
2018-06-02T19:43:14.198Z,999.90
2018-06-02T19:45:47.696Z,999.90
2018-06-02T19:48:21.394Z,999.90
2018-06-02T19:50:54.192Z,999.90
2018-06-02T19:53:27.100Z,999.90
2018-06-02T19:55:59.416Z,999.90
2018-06-02T19:58:32.736Z,999.90
2018-06-02T20:01:05.474Z,999.90
2018-06-02T20:03:37.675Z,999.90
2018-06-02T20:06:11.798Z,999.90
2018-06-02T20:08:46.258Z,999.90
2018-06-02T20:11:19.496Z,962.87
2018-06-02T20:13:52.682Z,917.47
2018-06-02T20:16:24.711Z,893.23
2018-06-02T20:18:57.835Z,918.53
2018-06-02T20:21:29.732Z,925.00
2018-06-02T20:24:01.657Z,999.90
2018-06-02T20:26:33.756Z,999.90
2018-06-02T20:29:08.050Z,999.90
2018-06-02T20:31:42.121Z,999.90
2018-06-02T20:34:14.805Z,999.90
2018-06-02T20:36:48.674Z,999.90
2018-06-02T20:39:22.330Z,999.90
2018-06-02T20:41:54.290Z,999.90
2018-06-02T20:44:26.890Z,999.90
2018-06-02T20:47:00.163Z,999.90
2018-06-02T20:49:32.555Z,994.17
2018-06-02T20:52:04.871Z,657.20
2018-06-02T20:54:36.575Z,506.63
2018-06-02T20:57:08.172Z,540.23
2018-06-02T20:59:40.796Z,641.47
2018-06-02T21:02:12.728Z,744.53
2018-06-02T21:04:44.877Z,679.40
2018-06-02T21:07:16.339Z,540.67
2018-06-02T21:09:51.120Z,518.27
2018-06-02T21:12:24.193Z,489.10
2018-06-02T21:14:56.332Z,563.77
2018-06-02T21:17:30.614Z,664.37
2018-06-02T21:20:04.153Z,545.47
2018-06-02T21:22:36.857Z,550.90
2018-06-02T21:25:09.309Z,492.70
2018-06-02T21:27:41.575Z,468.83
2018-06-02T21:30:15.233Z,460.53
2018-06-02T21:32:48.315Z,456.90
2018-06-02T21:35:20.132Z,416.33
2018-06-02T21:37:52.370Z,377.93
2018-06-02T21:40:28.258Z,361.30
2018-06-02T21:43:00.388Z,348.07
2018-06-02T21:45:32.780Z,357.30
2018-06-02T21:48:06.891Z,462.73
2018-06-02T21:50:38.977Z,374.43
2018-06-02T21:53:11.139Z,540.43
2018-06-02T21:55:43.613Z,724.60
2018-06-02T21:58:15.874Z,706.30
2018-06-02T22:00:48.874Z,723.97
2018-06-02T22:03:20.997Z,819.07
2018-06-02T22:05:56.380Z,795.87
2018-06-02T22:08:32.414Z,819.20
2018-06-02T22:33:16.967Z,999.90
2018-06-02T22:35:49.218Z,999.90
2018-06-02T22:38:21.605Z,999.90
2018-06-02T22:40:53.597Z,999.90
2018-06-02T22:43:28.140Z,999.90
2018-06-02T22:46:00.019Z,999.90
2018-06-02T22:48:32.845Z,999.90
2018-06-02T22:51:05.338Z,999.90
2018-06-02T22:53:38.261Z,987.67
2018-06-02T22:56:12.106Z,768.47
2018-06-02T22:58:46.200Z,883.30
2018-06-02T23:01:20.201Z,954.63
2018-06-02T23:04:58.620Z,971.97
2018-06-02T23:07:36.300Z,898.00
